createdAt,value
2019-04-23T00:02:25.119Z,15.70
2019-04-23T00:08:36.254Z,15.50
2019-04-23T00:14:41.052Z,15.40
2019-04-23T00:20:42.272Z,15.30
2019-04-23T00:27:01.883Z,15.30
2019-04-23T00:32:59.205Z,15.20
2019-04-23T00:38:54.250Z,15.10
2019-04-23T00:45:00.371Z,15.00
2019-04-23T00:51:22.749Z,14.90
2019-04-23T01:03:21.439Z,14.90
2019-04-23T01:09:44.105Z,15.00
2019-04-23T01:21:30.585Z,14.80
2019-04-23T01:28:17.480Z,14.80
2019-04-23T01:34:26.029Z,14.80
2019-04-23T01:40:31.900Z,14.70
2019-04-23T01:46:35.838Z,14.80
2019-04-23T01:52:45.554Z,14.60
2019-04-23T01:58:46.990Z,14.60
2019-04-23T02:04:55.123Z,14.60
2019-04-23T02:17:00.808Z,14.60
2019-04-23T02:54:26.807Z,14.30
2019-04-23T03:00:28.812Z,14.20
2019-04-23T03:06:32.188Z,14.20
2019-04-23T03:18:51.864Z,14.00
2019-04-23T03:25:07.139Z,14.00
2019-04-23T03:43:26.151Z,13.60
2019-04-23T03:49:32.815Z,13.40
2019-04-23T04:14:01.040Z,13.20
2019-04-23T04:26:04.580Z,13.00
2019-04-23T04:32:15.105Z,13.00
2019-04-23T04:38:38.675Z,12.90
2019-04-23T04:44:38.318Z,12.90
2019-04-23T04:50:26.607Z,12.80
2019-04-23T04:56:40.335Z,12.80
2019-04-23T05:02:53.922Z,12.70
2019-04-23T05:09:02.238Z,12.70
2019-04-23T05:14:56.766Z,12.70
2019-04-23T05:20:58.047Z,12.60
2019-04-23T05:26:57.952Z,12.60
2019-04-23T05:33:13.256Z,12.50
2019-04-23T05:39:15.478Z,12.50
2019-04-23T05:45:16.082Z,12.50
2019-04-23T05:51:28.308Z,12.50
2019-04-23T05:57:27.214Z,12.50
2019-04-23T06:03:38.430Z,12.60
2019-04-23T06:09:41.762Z,12.50
2019-04-23T06:15:46.766Z,12.60
2019-04-23T06:28:03.544Z,12.70
2019-04-23T06:34:12.507Z,12.70
2019-04-23T06:40:27.556Z,12.80
2019-04-23T06:46:21.268Z,12.90
2019-04-23T06:58:32.705Z,13.00
2019-04-23T07:04:43.341Z,13.10
2019-04-23T07:10:40.350Z,13.20
2019-04-23T07:16:47.016Z,13.30
2019-04-23T07:22:58.084Z,13.50
2019-04-23T07:29:00.004Z,13.60
2019-04-23T07:41:47.841Z,14.00
2019-04-23T07:48:10.867Z,14.20
2019-04-23T07:54:16.073Z,14.50
2019-04-23T08:00:24.044Z,14.60
2019-04-23T08:06:17.823Z,14.90
2019-04-23T08:12:31.930Z,15.10
2019-04-23T08:18:39.820Z,15.60
2019-04-23T08:25:11.005Z,15.80
2019-04-23T08:31:09.832Z,16.10
2019-04-23T08:37:14.997Z,16.10
2019-04-23T08:43:36.909Z,16.20
2019-04-23T08:49:46.817Z,16.40
2019-04-23T08:55:44.591Z,16.80
2019-04-23T09:01:55.670Z,16.90
2019-04-23T09:08:01.542Z,17.20
2019-04-23T09:13:55.808Z,17.40
2019-04-23T09:26:22.727Z,17.80
2019-04-23T09:38:34.855Z,17.70
2019-04-23T09:44:58.349Z,17.80
2019-04-23T09:50:55.497Z,18.00
2019-04-23T09:57:14.047Z,17.90
2019-04-23T10:02:55.531Z,18.10
2019-04-23T10:08:50.047Z,18.20
2019-04-23T10:14:57.735Z,18.90
2019-04-23T10:20:56.944Z,19.10
2019-04-23T10:27:01.970Z,18.80
2019-04-23T10:33:07.504Z,19.10
2019-04-23T10:39:21.185Z,18.80
2019-04-23T10:45:44.789Z,19.10
2019-04-23T10:52:12.966Z,19.10
2019-04-23T10:58:17.390Z,19.00
2019-04-23T11:04:39.435Z,19.10
2019-04-23T11:10:23.572Z,19.20
2019-04-23T11:22:45.234Z,19.60
2019-04-23T11:40:49.521Z,19.80
2019-04-23T11:53:10.393Z,20.20
2019-04-23T11:59:27.486Z,20.00
2019-04-23T12:05:46.636Z,19.90
2019-04-23T12:17:55.912Z,20.30
2019-04-23T12:24:39.452Z,20.20
2019-04-23T12:30:08.567Z,20.20
2019-04-23T12:36:42.049Z,20.10
2019-04-23T12:54:58.993Z,20.60
2019-04-23T13:00:51.589Z,20.80
2019-04-23T13:06:57.887Z,20.80
2019-04-23T13:13:11.176Z,20.80
2019-04-23T13:19:23.638Z,20.60
2019-04-23T13:25:45.666Z,20.80
2019-04-23T13:31:40.075Z,20.80
2019-04-23T13:38:09.257Z,20.60
2019-04-23T13:44:14.287Z,21.00
2019-04-23T13:50:07.442Z,21.10
2019-04-23T13:56:13.709Z,21.10
2019-04-23T14:02:24.394Z,21.30
2019-04-23T14:08:33.588Z,21.30
2019-04-23T14:14:52.157Z,21.50
2019-04-23T14:20:32.282Z,21.50
2019-04-23T14:26:38.416Z,21.70
2019-04-23T14:32:53.512Z,21.40
2019-04-23T14:45:13.605Z,20.90
2019-04-23T14:51:13.444Z,20.90
2019-04-23T14:57:15.910Z,21.00
2019-04-23T15:03:28.804Z,21.50
2019-04-23T15:09:28.080Z,21.40
2019-04-23T15:28:21.492Z,21.20
2019-04-23T15:40:00.773Z,21.10
2019-04-23T15:46:02.908Z,21.30
2019-04-23T15:52:10.800Z,21.50
2019-04-23T15:58:14.294Z,21.50
2019-04-23T16:03:53.046Z,21.60
2019-04-23T16:10:28.780Z,21.60
2019-04-23T16:16:37.367Z,21.40
2019-04-23T16:22:36.807Z,21.30
2019-04-23T16:29:07.359Z,21.10
2019-04-23T16:35:10.902Z,21.20
2019-04-23T16:40:57.229Z,21.00
2019-04-23T16:47:14.511Z,20.80
2019-04-23T16:53:21.438Z,20.70
2019-04-23T16:59:17.984Z,20.70
2019-04-23T17:05:33.771Z,20.60
2019-04-23T17:11:48.416Z,20.60
2019-04-23T17:17:41.149Z,20.50
2019-04-23T17:24:09.667Z,20.40
2019-04-23T17:29:51.050Z,20.40
2019-04-23T17:36:24.751Z,20.30
2019-04-23T17:42:40.144Z,20.20
2019-04-23T17:48:47.879Z,20.10
2019-04-23T17:54:55.271Z,20.10
2019-04-23T18:01:20.331Z,20.00
2019-04-23T18:07:44.634Z,20.00
2019-04-23T18:13:36.870Z,19.90
2019-04-23T18:19:47.203Z,19.90
2019-04-23T18:25:58.043Z,19.90
2019-04-23T18:38:29.085Z,19.70
2019-04-23T18:44:38.335Z,19.60
2019-04-23T18:50:57.054Z,19.50
2019-04-23T18:56:59.534Z,19.30
2019-04-23T19:03:11.272Z,19.20
2019-04-23T19:15:21.902Z,19.00
2019-04-23T19:21:29.900Z,18.80
2019-04-23T19:39:36.585Z,18.10
2019-04-23T19:45:56.818Z,18.10
2019-04-23T19:51:54.286Z,18.00
2019-04-23T20:03:56.271Z,17.90
2019-04-23T20:10:04.112Z,17.80
2019-04-23T20:16:19.541Z,17.70
2019-04-23T20:29:02.653Z,17.60
2019-04-23T20:40:54.020Z,17.40
2019-04-23T20:47:06.802Z,17.20
2019-04-23T20:52:59.614Z,17.20
2019-04-23T20:59:11.592Z,17.10
2019-04-23T21:05:19.600Z,17.10
2019-04-23T21:11:28.671Z,16.90
2019-04-23T21:17:42.372Z,16.90
2019-04-23T21:23:37.485Z,16.90
2019-04-23T21:29:53.766Z,16.80
2019-04-23T21:36:15.573Z,16.80
2019-04-23T21:42:32.746Z,16.60
2019-04-23T21:48:53.075Z,16.50
2019-04-23T21:54:47.166Z,16.30
2019-04-23T22:00:58.712Z,16.20
2019-04-23T22:13:13.010Z,16.00
2019-04-23T22:25:02.753Z,16.10
2019-04-23T22:31:18.681Z,16.00
2019-04-23T22:37:24.187Z,15.90
2019-04-23T22:43:29.972Z,15.90
2019-04-23T22:49:45.248Z,15.80
2019-04-23T22:56:01.701Z,15.70
2019-04-23T23:02:09.148Z,15.60
2019-04-23T23:08:10.684Z,15.40
2019-04-23T23:20:36.307Z,15.30
2019-04-23T23:44:57.158Z,14.80
2019-04-23T23:51:00.774Z,14.90
2019-04-23T23:57:11.197Z,14.80
